createdAt,value
2018-10-01T00:07:37.945Z,61.60
2018-10-01T00:17:41.267Z,61.30
2018-10-01T00:27:44.680Z,60.80
2018-10-01T00:37:48.025Z,61.60
2018-10-01T00:47:51.296Z,61.50
2018-10-01T00:57:54.646Z,61.80
2018-10-01T01:07:57.981Z,61.70
2018-10-01T01:18:01.331Z,62.20
2018-10-01T01:28:04.706Z,62.90
2018-10-01T01:38:08.017Z,63.00
2018-10-01T01:48:11.354Z,62.60
2018-10-01T01:58:14.713Z,63.50
2018-10-01T02:08:18.069Z,64.80
2018-10-01T02:18:21.417Z,65.10
2018-10-01T02:28:24.745Z,64.40
2018-10-01T02:38:28.086Z,63.90
2018-10-01T02:48:31.429Z,63.50
2018-10-01T02:58:34.790Z,63.50
2018-10-01T03:08:38.125Z,63.00
2018-10-01T03:18:41.457Z,62.80
2018-10-01T03:28:44.826Z,62.20
2018-10-01T03:38:48.158Z,61.00
2018-10-01T03:48:51.641Z,61.50
2018-10-01T03:58:55.162Z,60.80
2018-10-01T04:08:58.588Z,60.20
2018-10-01T04:19:01.845Z,60.30
2018-10-01T04:29:05.199Z,60.00
2018-10-01T04:39:10.249Z,59.60
2018-10-01T04:49:14.065Z,59.30
2018-10-01T04:59:17.397Z,59.00
2018-10-01T05:09:20.700Z,59.00
2018-10-01T05:19:24.119Z,59.00
2018-10-01T05:29:27.401Z,59.00
2018-10-01T05:39:30.745Z,59.10
2018-10-01T05:49:35.093Z,59.00
2018-10-01T05:59:38.662Z,58.90
2018-10-01T06:09:41.913Z,58.00
2018-10-01T06:19:45.374Z,57.60
2018-10-01T06:29:48.709Z,57.50
2018-10-01T06:39:52.062Z,57.30
2018-10-01T06:49:55.486Z,57.10
2018-10-01T06:59:59.061Z,57.10
2018-10-01T07:10:02.399Z,57.20
2018-10-01T07:20:06.383Z,57.00
2018-10-01T07:30:09.681Z,56.80
2018-10-01T07:40:13.023Z,56.80
2018-10-01T07:50:16.460Z,56.60
2018-10-01T08:00:20.073Z,56.20
2018-10-01T08:10:23.355Z,55.60
2018-10-01T08:20:26.757Z,56.20
2018-10-01T08:30:30.010Z,56.10
2018-10-01T08:40:33.247Z,56.60
2018-10-01T08:50:45.849Z,56.90
2018-10-01T09:00:49.341Z,57.10
2018-10-01T09:10:52.586Z,56.80
2018-10-01T09:20:55.837Z,56.80
2018-10-01T09:30:59.097Z,56.30
2018-10-01T09:41:02.335Z,56.00
2018-10-01T09:51:05.606Z,55.60
2018-10-01T10:01:13.568Z,54.90
2018-10-01T10:11:16.822Z,55.00
2018-10-01T10:21:20.120Z,54.70
2018-10-01T10:31:23.361Z,51.70
2018-10-01T10:41:26.612Z,50.60
2018-10-01T10:51:29.877Z,51.20
2018-10-01T11:01:33.149Z,50.80
2018-10-01T11:11:36.401Z,50.30
2018-10-01T11:21:39.833Z,49.40
2018-10-01T11:31:43.232Z,48.30
2018-10-01T11:41:46.481Z,47.50
2018-10-01T11:51:50.126Z,46.30
2018-10-01T12:01:53.394Z,44.30
2018-10-01T12:11:56.801Z,44.60
2018-10-01T12:22:00.084Z,44.40
2018-10-01T12:32:03.289Z,44.60
2018-10-01T12:42:06.600Z,45.50
2018-10-01T12:52:16.765Z,46.70
2018-10-01T13:02:20.121Z,46.80
2018-10-01T13:12:23.437Z,47.30
2018-10-01T13:22:26.689Z,48.40
2018-10-01T13:32:29.933Z,48.60
2018-10-01T13:42:33.269Z,47.70
2018-10-01T13:52:36.676Z,47.50
2018-10-01T14:02:39.916Z,47.40
2018-10-01T14:12:43.170Z,46.60
2018-10-01T14:22:46.393Z,46.60
2018-10-01T14:32:49.657Z,46.60
2018-10-01T14:42:53.042Z,46.00
2018-10-01T14:52:56.304Z,45.50
2018-10-01T15:02:59.737Z,46.10
2018-10-01T15:13:03.027Z,43.50
2018-10-01T15:23:06.397Z,44.70
2018-10-01T15:33:09.721Z,45.40
2018-10-01T15:43:12.937Z,45.30
2018-10-01T15:53:16.213Z,45.50
2018-10-01T16:03:19.535Z,45.50
2018-10-01T16:13:22.734Z,46.30
2018-10-01T16:33:34.808Z,51.50
2018-10-01T16:53:46.621Z,53.10
2018-10-01T17:03:49.990Z,54.20
2018-10-01T17:13:53.407Z,53.90
2018-10-01T17:23:56.669Z,53.70
2018-10-01T17:33:59.879Z,53.90
2018-10-01T17:44:03.177Z,54.00
2018-10-01T17:54:06.787Z,54.20
2018-10-01T18:04:10.058Z,54.00
2018-10-01T18:14:13.504Z,53.00
2018-10-01T18:24:16.752Z,53.10
2018-10-01T18:34:19.982Z,53.30
2018-10-01T18:44:23.201Z,53.50
2018-10-01T18:54:26.412Z,53.80
2018-10-01T19:04:29.657Z,54.00
2018-10-01T19:14:32.946Z,54.30
2018-10-01T19:24:36.178Z,54.20
2018-10-01T19:34:39.513Z,55.50
2018-10-01T19:44:42.813Z,57.50
2018-10-01T19:54:46.044Z,58.50
2018-10-01T20:04:49.301Z,58.90
2018-10-01T20:14:52.607Z,59.10
2018-10-01T20:24:56.138Z,60.40
2018-10-01T20:34:59.709Z,60.10
2018-10-01T20:45:03.006Z,58.70
2018-10-01T20:55:06.306Z,57.60
2018-10-01T21:05:09.553Z,57.80
2018-10-01T21:15:12.808Z,57.90
2018-10-01T21:25:16.041Z,58.00
2018-10-01T21:35:19.273Z,58.20
2018-10-01T21:45:22.645Z,58.40
2018-10-01T21:55:26.205Z,58.50
2018-10-01T22:05:29.468Z,58.70
2018-10-01T22:15:38.073Z,58.70
2018-10-01T22:25:41.348Z,59.00
2018-10-01T22:35:44.601Z,59.10
2018-10-01T22:45:47.857Z,59.50
2018-10-01T22:55:51.077Z,60.80
2018-10-01T23:05:54.337Z,61.30
2018-10-01T23:15:57.565Z,61.40
2018-10-01T23:26:00.845Z,61.70
2018-10-01T23:36:04.089Z,62.10
2018-10-01T23:46:13.885Z,62.20
2018-10-01T23:56:17.120Z,62.60
